Belmullet, Ireland

5:01 PM IST on July 30, 2014 (GMT +0100)
Connaught (EIKN) Elev 663 ft | 53.91 °N, 8.81 °W | Change Station

Current weather conditions updated 31 minutes ago

Mostly Cloudy
Mostly Cloudy
61 °F
Feels Like 61 °F
N
15
Wind Variable Wind from WSW

Tomorrow is forecast to be nearly the same temperature as today. Light rain in the morning.

Today
High -- | Low -- °F
--% Chance of Precip.
Yesterday
High -- | Low -- °F
Precip. -- in
5:48 AM 9:43 PM
Waxing Crescent, 12% visible
Pressure 29.98 in
Visibility 6.2 miles
Clouds Scattered Clouds 1100 ft
Mostly Cloudy 2000 ft
Mostly Cloudy 2800 ft
Dew Point 57 °F
Humidity 88%
Rainfall 0.00 in
Snow Depth Not available.
UV 3 out of 12
Pollen Not available.
Air Quality Not available.
Flu Activity Not available.
METAR EIKN 301530Z 25013KT 9999 SCT011 BKN020 BKN028 16/14 Q1015 NOSIG

More Conditions Fewer Conditions

Pressure 29.98 in
Visibility 6.2 miles
Clouds Scattered Clouds 1100 ft
Mostly Cloudy 2000 ft
Mostly Cloudy 2800 ft
Dew Point 57 °F
Humidity 88%
Rainfall 0.00 in
Snow Depth Not available.
UV 3 out of 12
Pollen Not available.
Air Quality Not available.
Flu Activity Not available.
METAR EIKN 301530Z 25013KT 9999 SCT011 BKN020 BKN028 16/14 Q1015 NOSIG

More Conditions Fewer Conditions

10-Day Weather Forecast

Almanac

Astronomy

Jul. 30, 2014 Rise Set
Actual Time 5:48 AM IST 9:43 PM IST
Civil Twilight 5:03 AM IST 10:28 PM IST
Nautical Twilight 3:57 AM IST 11:32 PM IST
Astronomical Twilight 2:18 AM IST 1:13 AM IST
Moon 9:48 AM IST 10:34 PM IST
Length of Visible Light 17h 25m
Length of Day
15h 54m
Tomorrow will be 3m 30s shorter.
Waxing Crescent, 12% of the Moon is Illuminated
Today
Waxing Crescent
Aug 3
First Quarter
Aug 10
Full
Aug 17
Last Quarter
Aug 25
New

Today's Extremes

Country Highs Country Lows

Community

WunderPhotos

Upload Photos

1,739,125 photos uploaded!

WunderBlogs® & News

By Dr. Jeff Masters
Director of Meteorology, Weather Underground
By Kari Strenfel
Meteorologist, Weather Underground
By Christopher C. Burt
Weather Historian, Weather Underground
July 30, 2014
July 30, 2014
July 30, 2014

Nearby

Snow Depth

Not available.

Earthquake Activity

City Distance Mag. Time & Date
No recent earthquake activity has been reported nearby.
Minimum magnitude displayed is 2.5.

Coastal Water Temperatures

Place Temperature
No Stations Reporting

Nearby Weather Stations

There are no personal weather stations in this area.